createdAt,value
2022-08-20T00:00:18.883Z,16.40
2022-08-20T00:02:51.715Z,16.23
2022-08-20T00:05:24.216Z,16.08
2022-08-20T00:07:53.912Z,16.09
2022-08-20T00:10:24.059Z,16.07
2022-08-20T00:12:55.074Z,16.19
2022-08-20T00:15:28.601Z,16.11
2022-08-20T00:17:58.780Z,16.05
2022-08-20T00:20:30.026Z,15.97
2022-08-20T00:23:00.144Z,15.95
2022-08-20T00:25:30.393Z,15.97
2022-08-20T00:28:01.657Z,16.11
2022-08-20T00:30:33.052Z,16.24
2022-08-20T00:33:06.125Z,16.09
2022-08-20T00:35:37.779Z,15.97
2022-08-20T00:38:07.538Z,15.93
2022-08-20T00:40:39.377Z,15.96
2022-08-20T00:43:27.906Z,16.07
2022-08-20T00:45:57.473Z,16.10
2022-08-20T00:48:28.909Z,16.22
2022-08-20T00:51:03.635Z,16.26
2022-08-20T00:53:33.429Z,16.29
2022-08-20T00:56:02.866Z,16.33
2022-08-20T00:58:34.499Z,16.36
2022-08-20T01:01:04.669Z,16.43
2022-08-20T01:03:34.037Z,16.43
2022-08-20T01:06:03.088Z,16.45
2022-08-20T01:08:32.481Z,16.56
2022-08-20T01:11:10.109Z,16.66
2022-08-20T01:13:41.859Z,16.80
2022-08-20T01:16:20.419Z,16.74
2022-08-20T01:18:50.700Z,16.68
2022-08-20T01:21:24.296Z,16.72
2022-08-20T01:24:00.707Z,16.77
2022-08-20T01:26:36.222Z,16.72
2022-08-20T01:29:08.743Z,16.67
2022-08-20T01:31:40.341Z,16.70
2022-08-20T01:34:12.540Z,16.65
2022-08-20T01:36:46.353Z,16.62
2022-08-20T01:39:18.552Z,16.64
2022-08-20T01:42:00.802Z,16.70
2022-08-20T01:44:30.990Z,16.78
2022-08-20T01:47:10.994Z,16.72
2022-08-20T01:49:43.936Z,16.71
2022-08-20T01:52:15.894Z,16.63
2022-08-20T01:54:46.679Z,16.64
2022-08-20T01:57:20.459Z,16.64
2022-08-20T01:59:52.042Z,16.56
2022-08-20T02:02:21.617Z,16.50
2022-08-20T02:04:51.131Z,16.49
2022-08-20T02:07:23.607Z,16.48
2022-08-20T02:09:52.809Z,16.52
2022-08-20T02:12:23.233Z,16.50
2022-08-20T02:14:54.815Z,16.54
2022-08-20T02:17:26.797Z,16.54
2022-08-20T02:19:59.682Z,16.49
2022-08-20T02:22:37.734Z,16.50
2022-08-20T02:25:08.769Z,16.43
2022-08-20T02:27:41.966Z,16.40
2022-08-20T02:30:27.983Z,16.32
2022-08-20T02:32:58.260Z,16.31
2022-08-20T02:35:28.511Z,16.26
2022-08-20T02:37:58.198Z,16.29
2022-08-20T02:40:31.432Z,16.44
2022-08-20T02:43:03.095Z,16.42
2022-08-20T02:45:37.492Z,16.46
2022-08-20T02:48:07.196Z,16.48
2022-08-20T02:50:36.264Z,16.45
2022-08-20T02:53:05.611Z,16.49
2022-08-20T02:55:34.731Z,16.43
2022-08-20T02:58:05.703Z,16.35
2022-08-20T03:00:38.439Z,16.36
2022-08-20T03:03:09.137Z,16.36
2022-08-20T03:05:41.484Z,16.31
2022-08-20T03:08:12.337Z,16.34
2022-08-20T03:10:43.906Z,16.31
2022-08-20T03:13:15.945Z,16.31
2022-08-20T03:15:47.762Z,16.33
2022-08-20T03:18:20.812Z,16.33
2022-08-20T03:20:52.157Z,16.31
2022-08-20T03:23:22.491Z,16.31
2022-08-20T03:25:51.588Z,16.19
2022-08-20T03:28:22.333Z,16.12
2022-08-20T03:30:53.155Z,16.08
2022-08-20T03:33:24.072Z,16.02
2022-08-20T03:35:54.163Z,15.95
2022-08-20T03:38:33.305Z,16.03
2022-08-20T03:41:03.913Z,16.04
2022-08-20T03:43:35.366Z,16.10
2022-08-20T03:46:05.187Z,16.12
2022-08-20T03:48:59.508Z,16.18
2022-08-20T03:51:31.403Z,16.21
2022-08-20T03:54:00.587Z,16.33
2022-08-20T03:56:30.074Z,16.32
2022-08-20T03:59:00.618Z,16.40
2022-08-20T04:01:44.281Z,16.38
2022-08-20T04:04:15.791Z,16.37
2022-08-20T04:06:47.015Z,16.33
2022-08-20T04:09:16.776Z,16.31
2022-08-20T04:11:45.881Z,16.43
2022-08-20T04:14:18.521Z,16.45
2022-08-20T04:16:48.961Z,16.48
2022-08-20T04:19:18.533Z,16.54
2022-08-20T04:21:48.400Z,16.57
2022-08-20T04:24:22.757Z,16.64
2022-08-20T04:27:02.671Z,16.73
2022-08-20T04:29:35.606Z,16.77
2022-08-20T04:32:06.229Z,16.85
2022-08-20T04:34:36.889Z,16.83
2022-08-20T04:37:06.619Z,16.88
2022-08-20T04:40:06.777Z,16.91
2022-08-20T04:42:38.146Z,16.91
2022-08-20T04:45:11.078Z,16.92
2022-08-20T04:47:40.177Z,16.94
2022-08-20T04:50:11.015Z,16.97
2022-08-20T04:52:40.825Z,17.02
2022-08-20T04:55:11.393Z,17.06
2022-08-20T04:57:41.108Z,17.08
2022-08-20T05:00:15.206Z,17.14
2022-08-20T05:02:44.400Z,17.28
2022-08-20T05:05:14.305Z,17.26
2022-08-20T05:07:45.771Z,17.31
2022-08-20T05:10:16.914Z,17.26
2022-08-20T05:12:56.518Z,17.32
2022-08-20T05:15:27.949Z,17.38
2022-08-20T05:18:00.575Z,17.38
2022-08-20T05:20:32.637Z,17.53
2022-08-20T05:23:03.058Z,17.61
2022-08-20T05:25:32.473Z,17.72
2022-08-20T05:28:06.021Z,17.72
2022-08-20T05:30:37.426Z,17.76
2022-08-20T05:33:08.422Z,17.83
2022-08-20T05:35:39.918Z,17.97
2022-08-20T05:38:11.634Z,18.10
2022-08-20T05:40:42.040Z,18.14
2022-08-20T05:43:11.289Z,18.12
2022-08-20T05:45:43.794Z,18.16
2022-08-20T05:48:15.375Z,18.24
2022-08-20T05:50:49.116Z,18.45
2022-08-20T05:53:19.366Z,18.70
2022-08-20T05:55:49.426Z,18.68
2022-08-20T05:58:22.033Z,18.69
2022-08-20T06:00:54.096Z,18.83
2022-08-20T06:03:41.158Z,18.88
2022-08-20T06:06:17.957Z,18.88
2022-08-20T06:08:59.912Z,19.03
2022-08-20T06:11:32.625Z,19.05
2022-08-20T06:14:04.242Z,19.06
2022-08-20T06:16:37.419Z,19.07
2022-08-20T06:19:06.969Z,19.07
2022-08-20T06:21:41.106Z,19.11
2022-08-20T06:24:10.681Z,19.16
2022-08-20T06:26:39.717Z,19.25
2022-08-20T06:29:09.053Z,19.30
2022-08-20T06:31:39.995Z,19.28
2022-08-20T06:34:09.032Z,19.19
2022-08-20T06:36:38.194Z,19.27
2022-08-20T06:39:07.331Z,19.16
2022-08-20T06:41:37.255Z,19.50
2022-08-20T06:44:07.608Z,19.83
2022-08-20T06:46:39.238Z,19.83
2022-08-20T06:49:09.065Z,19.91
2022-08-20T06:51:40.098Z,20.15
2022-08-20T06:54:10.683Z,19.67
2022-08-20T06:56:40.095Z,20.18
2022-08-20T06:59:09.321Z,20.03
2022-08-20T07:01:39.756Z,20.20
2022-08-20T07:04:08.831Z,20.12
2022-08-20T07:06:38.028Z,20.60
2022-08-20T07:09:07.139Z,20.97
2022-08-20T07:11:36.333Z,20.84
2022-08-20T07:14:05.988Z,20.70
2022-08-20T07:16:35.085Z,20.62
2022-08-20T07:19:05.619Z,20.70
2022-08-20T07:21:34.700Z,21.02
2022-08-20T07:24:04.436Z,21.70
2022-08-20T07:26:34.451Z,22.40
2022-08-20T07:29:03.583Z,23.37
2022-08-20T07:31:50.023Z,22.18
2022-08-20T07:34:20.558Z,21.94
2022-08-20T07:36:50.339Z,22.39
2022-08-20T07:39:19.383Z,22.07
2022-08-20T07:42:02.976Z,21.67
2022-08-20T07:44:32.390Z,22.27
2022-08-20T07:47:01.832Z,22.90
2022-08-20T07:49:33.626Z,23.23
2022-08-20T07:52:02.688Z,23.27
2022-08-20T07:54:31.787Z,22.55
2022-08-20T07:57:03.471Z,22.15
2022-08-20T07:59:32.987Z,22.43
2022-08-20T08:02:02.145Z,22.52
2022-08-20T08:04:32.592Z,22.29
2022-08-20T08:07:02.166Z,22.43
2022-08-20T08:09:32.900Z,22.30
2022-08-20T08:12:03.681Z,22.08
2022-08-20T08:14:36.617Z,22.25
2022-08-20T08:17:07.534Z,21.80
2022-08-20T08:19:42.061Z,21.97
2022-08-20T08:22:13.583Z,22.07
2022-08-20T08:24:57.675Z,22.19
2022-08-20T08:27:27.073Z,22.37
2022-08-20T08:29:56.516Z,22.31
2022-08-20T08:32:25.631Z,22.53
2022-08-20T08:34:56.360Z,23.09
2022-08-20T08:37:30.094Z,22.60
2022-08-20T08:40:01.321Z,22.27
2022-08-20T08:42:43.222Z,22.35
2022-08-20T08:45:18.610Z,22.51
2022-08-20T08:47:47.756Z,22.44
2022-08-20T08:50:52.922Z,22.88
2022-08-20T08:53:23.063Z,23.97
2022-08-20T08:55:52.556Z,23.33
2022-08-20T08:58:21.713Z,24.37
2022-08-20T09:00:56.573Z,24.38
2022-08-20T09:03:31.520Z,24.24
2022-08-20T09:06:03.700Z,24.41
2022-08-20T09:08:41.573Z,24.56
2022-08-20T09:11:13.153Z,24.47
2022-08-20T09:13:46.361Z,24.59
2022-08-20T09:16:16.003Z,24.64
2022-08-20T09:18:45.274Z,24.08
2022-08-20T09:21:16.379Z,24.51
2022-08-20T09:23:46.160Z,24.84
2022-08-20T09:26:15.662Z,24.08
2022-08-20T09:28:52.146Z,24.08
2022-08-20T09:31:24.265Z,23.75
2022-08-20T09:33:53.552Z,24.30
2022-08-20T09:36:31.440Z,25.01
2022-08-20T09:39:04.594Z,25.24
2022-08-20T09:41:34.589Z,23.74
2022-08-20T09:44:04.071Z,24.58
2022-08-20T09:46:33.204Z,23.42
2022-08-20T09:49:02.367Z,24.70
2022-08-20T09:51:33.785Z,24.97
2022-08-20T09:54:04.856Z,24.50
2022-08-20T09:56:36.674Z,24.49
2022-08-20T09:59:05.989Z,24.52
2022-08-20T10:01:35.243Z,25.51
2022-08-20T10:04:04.742Z,25.80
2022-08-20T10:06:41.185Z,25.68
2022-08-20T10:09:10.635Z,24.37
2022-08-20T10:11:40.023Z,24.00
2022-08-20T10:14:10.102Z,24.29
2022-08-20T10:16:39.456Z,24.38
2022-08-20T10:19:08.754Z,24.98
2022-08-20T10:21:39.525Z,25.12
2022-08-20T10:24:08.826Z,25.10
2022-08-20T10:26:39.807Z,24.64
2022-08-20T10:29:08.865Z,24.71
2022-08-20T10:31:38.069Z,24.66
2022-08-20T10:34:07.558Z,25.13
2022-08-20T10:36:38.140Z,24.42
2022-08-20T10:39:07.225Z,24.70
2022-08-20T10:41:38.944Z,24.40
2022-08-20T10:44:08.556Z,23.40
2022-08-20T10:46:37.638Z,23.98
2022-08-20T10:49:06.754Z,24.42
2022-08-20T10:51:35.879Z,24.64
2022-08-20T10:54:09.444Z,24.17
2022-08-20T10:56:42.055Z,24.57
2022-08-20T10:59:11.185Z,24.41
2022-08-20T11:01:40.922Z,24.07
2022-08-20T11:04:10.418Z,23.50
2022-08-20T11:06:39.457Z,23.99
2022-08-20T11:09:10.278Z,22.91
2022-08-20T11:11:39.508Z,23.84
2022-08-20T11:14:10.216Z,23.16
2022-08-20T11:16:39.405Z,23.54
2022-08-20T11:19:08.515Z,23.72
2022-08-20T11:21:37.596Z,24.04
2022-08-20T11:24:06.949Z,23.49
2022-08-20T11:26:37.399Z,23.83
2022-08-20T11:29:06.476Z,24.21
2022-08-20T11:31:38.012Z,23.89
2022-08-20T11:34:10.731Z,24.02
2022-08-20T11:36:42.544Z,23.64
2022-08-20T11:39:11.919Z,24.12
2022-08-20T11:41:45.748Z,23.91
2022-08-20T11:44:21.164Z,23.64
2022-08-20T11:46:50.995Z,23.64
2022-08-20T11:49:20.094Z,24.02
2022-08-20T11:51:50.335Z,24.25
2022-08-20T11:54:19.762Z,25.49
2022-08-20T11:56:51.645Z,25.95
2022-08-20T11:59:20.957Z,24.83
2022-08-20T12:02:02.759Z,24.30
2022-08-20T12:04:33.535Z,24.95
2022-08-20T12:07:11.005Z,24.78
2022-08-20T12:09:47.326Z,25.35
2022-08-20T12:12:23.929Z,24.93
2022-08-20T12:14:54.068Z,24.28
2022-08-20T12:17:26.959Z,24.47
2022-08-20T12:19:58.860Z,25.54
2022-08-20T12:22:28.256Z,25.57
2022-08-20T12:24:57.772Z,25.01
2022-08-20T12:27:30.258Z,25.06
2022-08-20T12:30:01.168Z,25.24
2022-08-20T12:32:32.138Z,25.33
2022-08-20T12:35:01.409Z,25.21
2022-08-20T12:37:33.026Z,25.35
2022-08-20T12:40:04.913Z,24.70
2022-08-20T12:42:35.470Z,25.24
2022-08-20T12:45:05.527Z,25.21
2022-08-20T12:47:37.213Z,25.22
2022-08-20T12:50:09.253Z,25.69
2022-08-20T12:52:38.439Z,24.30
2022-08-20T12:55:09.884Z,24.51
2022-08-20T12:57:43.949Z,24.50
2022-08-20T13:00:16.257Z,24.46
2022-08-20T13:02:45.443Z,24.22
2022-08-20T13:05:15.372Z,24.84
2022-08-20T13:07:46.681Z,24.77
2022-08-20T13:10:19.910Z,24.88
2022-08-20T13:12:50.749Z,24.77
2022-08-20T13:15:20.430Z,24.74
2022-08-20T13:17:52.793Z,25.36
2022-08-20T13:20:25.488Z,25.61
2022-08-20T13:22:56.330Z,25.84
2022-08-20T13:25:26.213Z,25.18
2022-08-20T13:28:03.882Z,24.71
2022-08-20T13:30:34.477Z,25.83
2022-08-20T13:33:03.690Z,25.94
2022-08-20T13:35:32.862Z,24.92
2022-08-20T13:38:01.942Z,25.90
2022-08-20T13:40:31.169Z,25.05
2022-08-20T13:43:06.479Z,25.14
2022-08-20T13:45:36.554Z,25.17
2022-08-20T13:48:06.956Z,25.52
2022-08-20T13:50:47.166Z,25.36
2022-08-20T13:53:17.489Z,25.24
2022-08-20T13:55:47.517Z,25.52
2022-08-20T13:58:18.379Z,25.42
2022-08-20T14:00:47.641Z,25.72
2022-08-20T14:03:19.935Z,26.21
2022-08-20T14:05:54.169Z,25.62
2022-08-20T14:08:24.792Z,25.34
2022-08-20T14:10:54.503Z,26.25
2022-08-20T14:13:26.906Z,26.08
2022-08-20T14:15:56.969Z,25.84
2022-08-20T14:18:26.055Z,26.27
2022-08-20T14:20:55.151Z,25.38
2022-08-20T14:23:24.217Z,25.42
2022-08-20T14:25:53.400Z,26.20
2022-08-20T14:28:25.742Z,26.30
2022-08-20T14:30:55.379Z,25.16
2022-08-20T14:33:25.085Z,24.71
2022-08-20T14:35:54.526Z,25.88
2022-08-20T14:38:23.673Z,25.32
2022-08-20T14:40:52.886Z,24.93
2022-08-20T14:43:22.084Z,24.78
2022-08-20T14:45:53.073Z,24.78
2022-08-20T14:48:24.322Z,24.98
2022-08-20T14:50:55.333Z,25.19
2022-08-20T14:53:24.450Z,24.42
2022-08-20T14:55:53.532Z,24.71
2022-08-20T14:58:22.533Z,24.90
2022-08-20T15:00:54.993Z,25.27
2022-08-20T15:03:28.647Z,25.17
2022-08-20T15:05:57.999Z,25.36
2022-08-20T15:08:28.385Z,24.84
2022-08-20T15:10:58.425Z,24.20
2022-08-20T15:13:27.505Z,25.11
2022-08-20T15:15:57.977Z,24.84
2022-08-20T15:18:28.698Z,24.83
2022-08-20T15:20:57.762Z,25.31
2022-08-20T15:23:26.894Z,24.80
2022-08-20T15:25:58.942Z,25.04
2022-08-20T15:28:28.004Z,24.81
2022-08-20T15:30:58.504Z,24.34
2022-08-20T15:33:27.582Z,25.29
2022-08-20T15:35:56.634Z,25.06
2022-08-20T15:38:25.799Z,25.24
2022-08-20T15:40:54.883Z,25.16
2022-08-20T15:43:23.878Z,23.73
2022-08-20T15:45:53.309Z,25.15
2022-08-20T15:48:31.555Z,24.78
2022-08-20T15:51:14.797Z,24.48
2022-08-20T15:53:53.451Z,24.28
2022-08-20T15:56:45.632Z,23.27
2022-08-20T15:59:26.642Z,24.18
2022-08-20T16:02:06.404Z,23.22
2022-08-20T16:05:12.110Z,23.61
2022-08-20T16:07:54.563Z,24.24
2022-08-20T16:10:31.199Z,24.07
2022-08-20T16:13:04.487Z,24.31
2022-08-20T16:15:37.073Z,24.00
2022-08-20T16:18:11.629Z,23.36
2022-08-20T16:20:47.942Z,23.73
2022-08-20T16:23:19.205Z,23.92
2022-08-20T16:26:05.587Z,23.61
2022-08-20T16:28:46.676Z,23.25
2022-08-20T16:31:21.766Z,22.80
2022-08-20T16:34:02.870Z,22.79
2022-08-20T16:36:39.760Z,23.07
2022-08-20T16:39:17.769Z,23.23
2022-08-20T16:41:49.255Z,23.34
2022-08-20T16:44:29.152Z,22.47
2022-08-20T16:47:11.663Z,22.15
2022-08-20T16:49:49.150Z,21.95
2022-08-20T16:52:19.629Z,21.76
2022-08-20T16:54:48.691Z,21.91
2022-08-20T16:57:18.755Z,22.13
2022-08-20T16:59:59.777Z,22.11
2022-08-20T17:02:28.965Z,22.11
2022-08-20T17:05:02.021Z,21.55
2022-08-20T17:07:47.036Z,21.68
2022-08-20T17:10:24.119Z,21.79
2022-08-20T17:12:55.815Z,22.19
2022-08-20T17:15:28.360Z,22.32
2022-08-20T17:17:57.699Z,21.91
2022-08-20T17:20:29.675Z,21.92
2022-08-20T17:23:16.241Z,22.14
2022-08-20T17:25:55.136Z,22.16
2022-08-20T17:28:24.291Z,22.07
2022-08-20T17:30:53.896Z,21.77
2022-08-20T17:33:31.263Z,21.56
2022-08-20T17:36:02.748Z,21.59
2022-08-20T17:38:41.055Z,21.70
2022-08-20T17:41:17.276Z,21.81
2022-08-20T17:43:47.074Z,21.73
2022-08-20T17:46:18.624Z,21.66
2022-08-20T17:48:49.995Z,21.71
2022-08-20T17:51:22.140Z,21.89
2022-08-20T17:53:57.921Z,21.62
2022-08-20T17:56:31.972Z,21.06
2022-08-20T17:59:05.927Z,20.68
2022-08-20T18:01:35.998Z,20.57
2022-08-20T18:04:05.838Z,20.48
2022-08-20T18:06:41.092Z,20.37
2022-08-20T18:09:17.478Z,20.31
2022-08-20T18:11:54.735Z,20.08
2022-08-20T18:14:47.085Z,20.03
2022-08-20T18:17:26.144Z,19.94
2022-08-20T18:20:37.793Z,19.85
2022-08-20T18:23:13.064Z,19.71
2022-08-20T18:25:49.625Z,19.66
2022-08-20T18:28:23.974Z,19.50
2022-08-20T18:30:57.237Z,19.36
2022-08-20T18:33:30.352Z,19.27
2022-08-20T18:36:09.646Z,19.18
2022-08-20T18:38:41.988Z,19.12
2022-08-20T18:41:27.801Z,18.96
2022-08-20T18:44:09.371Z,18.78
2022-08-20T18:46:51.525Z,18.71
2022-08-20T18:49:30.221Z,18.62
2022-08-20T18:52:09.171Z,18.53
2022-08-20T18:54:39.171Z,18.39
2022-08-20T18:57:18.838Z,18.23
2022-08-20T18:59:55.296Z,18.18
2022-08-20T19:02:29.314Z,18.09
2022-08-20T19:05:02.478Z,18.00
2022-08-20T19:07:45.807Z,18.02
2022-08-20T19:10:38.764Z,17.97
2022-08-20T19:13:40.953Z,17.87
2022-08-20T19:16:15.881Z,17.83
2022-08-20T19:18:51.462Z,17.74
2022-08-20T19:21:26.077Z,17.67
2022-08-20T19:23:58.839Z,17.53
2022-08-20T19:26:31.208Z,17.41
2022-08-20T19:29:08.125Z,17.23
2022-08-20T19:31:37.862Z,17.16
2022-08-20T19:34:19.059Z,17.08
2022-08-20T19:36:56.529Z,17.12
2022-08-20T19:39:26.933Z,16.91
2022-08-20T19:42:01.441Z,16.82
2022-08-20T19:44:37.606Z,16.82
2022-08-20T19:47:14.721Z,16.78
2022-08-20T19:49:54.821Z,16.68
2022-08-20T19:52:36.877Z,16.55
2022-08-20T19:55:16.270Z,16.55
2022-08-20T19:57:51.914Z,16.53
2022-08-20T20:00:23.949Z,16.45
2022-08-20T20:02:53.738Z,16.42
2022-08-20T20:05:23.869Z,16.44
2022-08-20T20:07:59.056Z,16.47
2022-08-20T20:10:33.206Z,16.39
2022-08-20T20:13:09.475Z,16.30
2022-08-20T20:15:41.711Z,16.23
2022-08-20T20:18:11.571Z,16.27
2022-08-20T20:20:50.230Z,16.20
2022-08-20T20:23:45.661Z,16.18
2022-08-20T20:26:19.783Z,16.22
2022-08-20T20:28:52.919Z,16.28
2022-08-20T20:31:28.760Z,16.26
2022-08-20T20:34:01.807Z,16.13
2022-08-20T20:36:37.834Z,16.12
2022-08-20T20:39:14.195Z,16.07
2022-08-20T20:41:53.194Z,15.98
2022-08-20T20:44:25.329Z,15.69
2022-08-20T20:46:59.790Z,15.63
2022-08-20T20:49:31.974Z,15.66
2022-08-20T20:52:04.974Z,15.73
2022-08-20T20:54:42.647Z,15.55
2022-08-20T20:57:35.320Z,15.42
2022-08-20T21:00:14.886Z,15.37
2022-08-20T21:02:45.656Z,15.29
2022-08-20T21:05:16.759Z,15.28
2022-08-20T21:07:50.929Z,15.26
2022-08-20T21:10:23.571Z,15.24
2022-08-20T21:12:53.597Z,15.29
2022-08-20T21:15:24.858Z,14.97
2022-08-20T21:17:59.156Z,14.99
2022-08-20T21:20:28.771Z,15.01
2022-08-20T21:22:59.038Z,14.92
2022-08-20T21:25:32.973Z,14.77
2022-08-20T21:28:02.586Z,14.60
2022-08-20T21:30:33.785Z,14.70
2022-08-20T21:33:04.615Z,14.66
2022-08-20T21:35:33.893Z,14.48
2022-08-20T21:38:02.876Z,14.54
2022-08-20T21:40:32.147Z,14.67
2022-08-20T21:43:01.913Z,14.72
2022-08-20T21:45:35.981Z,14.71
2022-08-20T21:48:07.878Z,14.59
2022-08-20T21:50:37.191Z,14.48
2022-08-20T21:53:12.449Z,14.49
2022-08-20T21:55:42.541Z,14.59
2022-08-20T21:58:13.133Z,14.61
2022-08-20T22:00:56.051Z,14.51
2022-08-20T22:03:29.032Z,14.18
2022-08-20T22:06:03.917Z,13.92
2022-08-20T22:08:33.132Z,13.74
2022-08-20T22:11:03.180Z,13.74
2022-08-20T22:13:34.008Z,13.73
2022-08-20T22:16:05.593Z,13.70
2022-08-20T22:18:36.883Z,13.55
2022-08-20T22:21:11.052Z,13.54
2022-08-20T22:23:41.022Z,13.32
2022-08-20T22:26:11.989Z,13.16
2022-08-20T22:28:42.047Z,13.48
2022-08-20T22:31:13.557Z,13.43
2022-08-20T22:33:47.567Z,13.37
2022-08-20T22:36:17.237Z,13.48
2022-08-20T22:38:47.339Z,13.65
2022-08-20T22:41:26.868Z,13.38
2022-08-20T22:43:57.437Z,13.26
2022-08-20T22:46:31.891Z,13.08
2022-08-20T22:49:03.284Z,12.97
2022-08-20T22:51:35.889Z,12.92
2022-08-20T22:54:11.425Z,12.90
2022-08-20T22:56:40.896Z,12.79
2022-08-20T22:59:09.998Z,12.73
2022-08-20T23:01:40.694Z,12.88
2022-08-20T23:04:14.409Z,12.84
2022-08-20T23:06:43.551Z,12.81
2022-08-20T23:09:12.924Z,12.77
2022-08-20T23:11:42.636Z,12.77
2022-08-20T23:14:11.949Z,12.96
2022-08-20T23:16:44.961Z,13.09
2022-08-20T23:19:21.637Z,13.06
2022-08-20T23:21:51.687Z,13.19
2022-08-20T23:24:21.507Z,13.12
2022-08-20T23:26:52.914Z,13.06
2022-08-20T23:29:25.417Z,13.08
2022-08-20T23:31:55.340Z,13.06
2022-08-20T23:34:26.473Z,13.09
2022-08-20T23:36:56.994Z,13.01
2022-08-20T23:39:27.424Z,13.02
2022-08-20T23:41:56.860Z,13.12
2022-08-20T23:44:27.184Z,13.18
2022-08-20T23:46:58.357Z,13.22
2022-08-20T23:49:30.189Z,13.09
2022-08-20T23:52:00.642Z,13.00
2022-08-20T23:54:30.516Z,12.92
2022-08-20T23:56:59.879Z,12.76
2022-08-20T23:59:29.102Z,12.69
